sensor_id;sensor_type;location;lat;lon;timestamp;P1;durP1;ratioP1;P2;durP2;ratioP2
36931;SDS011;22847;42.654;23.370;2024-01-15T00:01:16;60.53;;;23.30;;
36931;SDS011;22847;42.654;23.370;2024-01-15T00:03:42;55.10;;;22.23;;
36931;SDS011;22847;42.654;23.370;2024-01-15T00:06:07;45.10;;;21.48;;
36931;SDS011;22847;42.654;23.370;2024-01-15T00:08:32;51.58;;;22.02;;
36931;SDS011;22847;42.654;23.370;2024-01-15T00:10:58;51.58;;;22.70;;
36931;SDS011;22847;42.654;23.370;2024-01-15T00:13:23;47.83;;;21.02;;
36931;SDS011;22847;42.654;23.370;2024-01-15T00:15:49;49.88;;;23.17;;
36931;SDS011;22847;42.654;23.370;2024-01-15T00:18:14;52.28;;;21.77;;
36931;SDS011;22847;42.654;23.370;2024-01-15T00:20:40;53.17;;;22.30;;
36931;SDS011;22847;42.654;23.370;2024-01-15T00:23:05;50.03;;;21.65;;
36931;SDS011;22847;42.654;23.370;2024-01-15T00:25:31;53.33;;;23.25;;
36931;SDS011;22847;42.654;23.370;2024-01-15T00:27:56;55.47;;;23.08;;
36931;SDS011;22847;42.654;23.370;2024-01-15T00:30:22;47.92;;;22.55;;
36931;SDS011;22847;42.654;23.370;2024-01-15T00:32:47;45.00;;;20.65;;
36931;SDS011;22847;42.654;23.370;2024-01-15T00:35:13;55.58;;;20.58;;
36931;SDS011;22847;42.654;23.370;2024-01-15T00:37:46;55.97;;;23.83;;
36931;SDS011;22847;42.654;23.370;2024-01-15T00:40:12;52.67;;;23.35;;
36931;SDS011;22847;42.654;23.370;2024-01-15T00:42:38;54.25;;;22.92;;
36931;SDS011;22847;42.654;23.370;2024-01-15T00:45:04;56.75;;;23.85;;
36931;SDS011;22847;42.654;23.370;2024-01-15T00:47:30;46.60;;;22.58;;
36931;SDS011;22847;42.654;23.370;2024-01-15T00:49:55;52.15;;;22.73;;
36931;SDS011;22847;42.654;23.370;2024-01-15T00:52:21;55.42;;;23.60;;
36931;SDS011;22847;42.654;23.370;2024-01-15T00:54:46;51.60;;;21.75;;
36931;SDS011;22847;42.654;23.370;2024-01-15T00:57:12;55.60;;;22.95;;
36931;SDS011;22847;42.654;23.370;2024-01-15T00:59:37;46.42;;;21.63;;
36931;SDS011;22847;42.654;23.370;2024-01-15T01:02:03;48.40;;;21.00;;
36931;SDS011;22847;42.654;23.370;2024-01-15T01:04:28;57.38;;;23.60;;
36931;SDS011;22847;42.654;23.370;2024-01-15T01:06:54;51.63;;;22.25;;
36931;SDS011;22847;42.654;23.370;2024-01-15T01:09:19;52.35;;;22.25;;
36931;SDS011;22847;42.654;23.370;2024-01-15T01:11:45;52.20;;;21.85;;
36931;SDS011;22847;42.654;23.370;2024-01-15T01:14:10;53.58;;;23.25;;
36931;SDS011;22847;42.654;23.370;2024-01-15T01:16:36;56.80;;;22.73;;
36931;SDS011;22847;42.654;23.370;2024-01-15T01:19:04;59.58;;;23.70;;
36931;SDS011;22847;42.654;23.370;2024-01-15T01:21:31;46.38;;;22.27;;
36931;SDS011;22847;42.654;23.370;2024-01-15T01:23:56;55.15;;;22.25;;
36931;SDS011;22847;42.654;23.370;2024-01-15T01:26:22;45.08;;;20.83;;
36931;SDS011;22847;42.654;23.370;2024-01-15T01:28:47;51.95;;;20.75;;
36931;SDS011;22847;42.654;23.370;2024-01-15T01:31:13;46.38;;;20.50;;
36931;SDS011;22847;42.654;23.370;2024-01-15T01:33:38;45.50;;;19.98;;
36931;SDS011;22847;42.654;23.370;2024-01-15T01:36:08;51.25;;;21.77;;
36931;SDS011;22847;42.654;23.370;2024-01-15T01:38:35;50.78;;;21.38;;
36931;SDS011;22847;42.654;23.370;2024-01-15T01:41:01;53.50;;;21.83;;
36931;SDS011;22847;42.654;23.370;2024-01-15T01:43:26;49.72;;;21.73;;
36931;SDS011;22847;42.654;23.370;2024-01-15T01:45:52;51.42;;;21.25;;
36931;SDS011;22847;42.654;23.370;2024-01-15T01:48:20;50.47;;;20.58;;
36931;SDS011;22847;42.654;23.370;2024-01-15T01:50:45;53.25;;;22.33;;
36931;SDS011;22847;42.654;23.370;2024-01-15T01:53:11;57.13;;;23.90;;
36931;SDS011;22847;42.654;23.370;2024-01-15T01:55:36;59.92;;;24.92;;
36931;SDS011;22847;42.654;23.370;2024-01-15T01:58:03;64.00;;;24.88;;
36931;SDS011;22847;42.654;23.370;2024-01-15T02:00:29;67.00;;;26.63;;
36931;SDS011;22847;42.654;23.370;2024-01-15T02:02:56;53.20;;;24.77;;
36931;SDS011;22847;42.654;23.370;2024-01-15T02:05:22;59.38;;;24.83;;
36931;SDS011;22847;42.654;23.370;2024-01-15T02:07:48;57.70;;;23.73;;
36931;SDS011;22847;42.654;23.370;2024-01-15T02:10:13;59.40;;;24.65;;
36931;SDS011;22847;42.654;23.370;2024-01-15T02:12:39;53.47;;;24.52;;
36931;SDS011;22847;42.654;23.370;2024-01-15T02:15:05;54.47;;;23.35;;
36931;SDS011;22847;42.654;23.370;2024-01-15T02:17:30;60.50;;;24.13;;
36931;SDS011;22847;42.654;23.370;2024-01-15T02:19:56;46.92;;;21.67;;
36931;SDS011;22847;42.654;23.370;2024-01-15T02:22:22;47.05;;;21.30;;
36931;SDS011;22847;42.654;23.370;2024-01-15T02:24:47;49.60;;;21.08;;
36931;SDS011;22847;42.654;23.370;2024-01-15T02:27:13;48.22;;;20.85;;
36931;SDS011;22847;42.654;23.370;2024-01-15T02:29:38;44.72;;;18.65;;
36931;SDS011;22847;42.654;23.370;2024-01-15T02:32:05;46.30;;;20.48;;
36931;SDS011;22847;42.654;23.370;2024-01-15T02:34:34;43.25;;;17.40;;
36931;SDS011;22847;42.654;23.370;2024-01-15T02:36:59;39.00;;;16.83;;
36931;SDS011;22847;42.654;23.370;2024-01-15T02:39:25;37.17;;;16.02;;
36931;SDS011;22847;42.654;23.370;2024-01-15T02:41:50;32.42;;;15.30;;
36931;SDS011;22847;42.654;23.370;2024-01-15T02:44:16;30.58;;;14.65;;
36931;SDS011;22847;42.654;23.370;2024-01-15T02:46:44;40.63;;;15.65;;
36931;SDS011;22847;42.654;23.370;2024-01-15T02:49:09;32.15;;;15.93;;
36931;SDS011;22847;42.654;23.370;2024-01-15T02:54:57;38.88;;;14.90;;
36931;SDS011;22847;42.654;23.370;2024-01-15T03:00:44;32.95;;;14.98;;
36931;SDS011;22847;42.654;23.370;2024-01-15T03:03:11;36.05;;;16.02;;
36931;SDS011;22847;42.654;23.370;2024-01-15T03:05:37;38.47;;;16.02;;
36931;SDS011;22847;42.654;23.370;2024-01-15T03:08:02;48.35;;;17.58;;
36931;SDS011;22847;42.654;23.370;2024-01-15T03:10:28;45.72;;;18.02;;
36931;SDS011;22847;42.654;23.370;2024-01-15T03:12:53;59.97;;;20.77;;
36931;SDS011;22847;42.654;23.370;2024-01-15T03:15:19;52.63;;;21.40;;
36931;SDS011;22847;42.654;23.370;2024-01-15T03:20:42;54.70;;;22.55;;
36931;SDS011;22847;42.654;23.370;2024-01-15T03:23:07;55.83;;;23.35;;
36931;SDS011;22847;42.654;23.370;2024-01-15T03:25:33;54.30;;;22.30;;
36931;SDS011;22847;42.654;23.370;2024-01-15T03:27:58;57.00;;;24.92;;
36931;SDS011;22847;42.654;23.370;2024-01-15T03:30:24;59.22;;;23.80;;
36931;SDS011;22847;42.654;23.370;2024-01-15T03:32:49;61.92;;;25.77;;
36931;SDS011;22847;42.654;23.370;2024-01-15T03:35:15;65.03;;;26.38;;
36931;SDS011;22847;42.654;23.370;2024-01-15T03:37:40;58.10;;;25.85;;
36931;SDS011;22847;42.654;23.370;2024-01-15T03:40:06;56.53;;;24.67;;
36931;SDS011;22847;42.654;23.370;2024-01-15T03:42:32;56.08;;;25.27;;
36931;SDS011;22847;42.654;23.370;2024-01-15T03:44:58;62.00;;;24.95;;
36931;SDS011;22847;42.654;23.370;2024-01-15T03:47:23;46.05;;;21.40;;
36931;SDS011;22847;42.654;23.370;2024-01-15T03:49:49;62.22;;;25.15;;
36931;SDS011;22847;42.654;23.370;2024-01-15T03:52:15;58.45;;;25.40;;
36931;SDS011;22847;42.654;23.370;2024-01-15T03:54:40;60.08;;;24.60;;
36931;SDS011;22847;42.654;23.370;2024-01-15T03:57:06;54.03;;;23.48;;
36931;SDS011;22847;42.654;23.370;2024-01-15T03:59:31;54.35;;;23.35;;
36931;SDS011;22847;42.654;23.370;2024-01-15T04:01:57;64.32;;;25.67;;
36931;SDS011;22847;42.654;23.370;2024-01-15T04:04:22;68.90;;;25.83;;
36931;SDS011;22847;42.654;23.370;2024-01-15T04:06:47;61.42;;;25.63;;
36931;SDS011;22847;42.654;23.370;2024-01-15T04:09:13;69.25;;;26.00;;
36931;SDS011;22847;42.654;23.370;2024-01-15T04:11:39;56.65;;;24.52;;
36931;SDS011;22847;42.654;23.370;2024-01-15T04:14:05;54.80;;;23.35;;
36931;SDS011;22847;42.654;23.370;2024-01-15T04:16:30;58.90;;;25.20;;
36931;SDS011;22847;42.654;23.370;2024-01-15T04:18:56;55.28;;;24.65;;
36931;SDS011;22847;42.654;23.370;2024-01-15T04:21:21;52.80;;;23.52;;
36931;SDS011;22847;42.654;23.370;2024-01-15T04:23:47;53.05;;;23.48;;
36931;SDS011;22847;42.654;23.370;2024-01-15T04:26:12;51.08;;;22.70;;
36931;SDS011;22847;42.654;23.370;2024-01-15T04:28:38;56.10;;;24.95;;
36931;SDS011;22847;42.654;23.370;2024-01-15T04:31:03;53.58;;;22.30;;
36931;SDS011;22847;42.654;23.370;2024-01-15T04:33:28;52.95;;;23.63;;
36931;SDS011;22847;42.654;23.370;2024-01-15T04:35:54;53.50;;;22.77;;
36931;SDS011;22847;42.654;23.370;2024-01-15T04:38:19;53.78;;;21.85;;
36931;SDS011;22847;42.654;23.370;2024-01-15T04:40:45;50.90;;;21.77;;
36931;SDS011;22847;42.654;23.370;2024-01-15T04:43:10;58.20;;;23.58;;
36931;SDS011;22847;42.654;23.370;2024-01-15T04:45:36;48.38;;;21.92;;
36931;SDS011;22847;42.654;23.370;2024-01-15T04:48:01;48.95;;;21.58;;
36931;SDS011;22847;42.654;23.370;2024-01-15T04:50:28;50.03;;;21.90;;
36931;SDS011;22847;42.654;23.370;2024-01-15T04:52:53;37.95;;;18.20;;
36931;SDS011;22847;42.654;23.370;2024-01-15T04:55:19;44.70;;;18.83;;
36931;SDS011;22847;42.654;23.370;2024-01-15T04:57:44;53.08;;;20.42;;
36931;SDS011;22847;42.654;23.370;2024-01-15T05:00:10;43.88;;;20.30;;
36931;SDS011;22847;42.654;23.370;2024-01-15T05:02:36;59.33;;;24.67;;
36931;SDS011;22847;42.654;23.370;2024-01-15T05:05:01;55.92;;;24.73;;
36931;SDS011;22847;42.654;23.370;2024-01-15T05:07:27;56.55;;;22.88;;
36931;SDS011;22847;42.654;23.370;2024-01-15T05:09:52;43.58;;;19.98;;
36931;SDS011;22847;42.654;23.370;2024-01-15T05:12:18;59.88;;;23.90;;
36931;SDS011;22847;42.654;23.370;2024-01-15T05:14:43;44.58;;;20.48;;
36931;SDS011;22847;42.654;23.370;2024-01-15T05:17:09;41.53;;;19.05;;
36931;SDS011;22847;42.654;23.370;2024-01-15T05:19:34;48.22;;;20.52;;
36931;SDS011;22847;42.654;23.370;2024-01-15T05:22:00;46.20;;;20.17;;
36931;SDS011;22847;42.654;23.370;2024-01-15T05:24:26;44.83;;;21.15;;
36931;SDS011;22847;42.654;23.370;2024-01-15T05:26:51;45.97;;;20.02;;
36931;SDS011;22847;42.654;23.370;2024-01-15T05:29:17;44.30;;;20.55;;
36931;SDS011;22847;42.654;23.370;2024-01-15T05:31:43;54.17;;;23.77;;
36931;SDS011;22847;42.654;23.370;2024-01-15T05:34:09;67.32;;;24.80;;
36931;SDS011;22847;42.654;23.370;2024-01-15T05:36:34;55.08;;;23.98;;
36931;SDS011;22847;42.654;23.370;2024-01-15T05:39:00;55.85;;;24.13;;
36931;SDS011;22847;42.654;23.370;2024-01-15T05:41:25;57.80;;;24.10;;
36931;SDS011;22847;42.654;23.370;2024-01-15T05:43:51;60.35;;;24.95;;
36931;SDS011;22847;42.654;23.370;2024-01-15T05:46:17;56.97;;;24.27;;
36931;SDS011;22847;42.654;23.370;2024-01-15T05:48:42;64.03;;;26.92;;
36931;SDS011;22847;42.654;23.370;2024-01-15T05:51:08;61.97;;;25.63;;
36931;SDS011;22847;42.654;23.370;2024-01-15T05:53:33;60.20;;;26.45;;
36931;SDS011;22847;42.654;23.370;2024-01-15T05:55:59;63.10;;;27.33;;
36931;SDS011;22847;42.654;23.370;2024-01-15T05:58:26;62.83;;;27.40;;
36931;SDS011;22847;42.654;23.370;2024-01-15T06:00:51;56.80;;;27.17;;
36931;SDS011;22847;42.654;23.370;2024-01-15T06:03:17;72.45;;;27.98;;
36931;SDS011;22847;42.654;23.370;2024-01-15T06:05:42;63.83;;;27.42;;
36931;SDS011;22847;42.654;23.370;2024-01-15T06:08:08;66.72;;;26.98;;
36931;SDS011;22847;42.654;23.370;2024-01-15T06:10:33;62.70;;;25.70;;
36931;SDS011;22847;42.654;23.370;2024-01-15T06:12:59;65.57;;;29.05;;
36931;SDS011;22847;42.654;23.370;2024-01-15T06:15:24;62.30;;;27.65;;
36931;SDS011;22847;42.654;23.370;2024-01-15T06:17:50;68.68;;;28.48;;
36931;SDS011;22847;42.654;23.370;2024-01-15T06:20:15;61.78;;;28.27;;
36931;SDS011;22847;42.654;23.370;2024-01-15T06:22:41;61.90;;;30.10;;
36931;SDS011;22847;42.654;23.370;2024-01-15T06:25:07;70.03;;;29.80;;
36931;SDS011;22847;42.654;23.370;2024-01-15T06:27:33;72.05;;;29.73;;
36931;SDS011;22847;42.654;23.370;2024-01-15T06:29:58;65.93;;;28.92;;
36931;SDS011;22847;42.654;23.370;2024-01-15T06:32:24;68.68;;;29.15;;
36931;SDS011;22847;42.654;23.370;2024-01-15T06:34:49;70.35;;;29.20;;
36931;SDS011;22847;42.654;23.370;2024-01-15T06:37:15;73.85;;;30.30;;
36931;SDS011;22847;42.654;23.370;2024-01-15T06:39:40;74.50;;;31.63;;
36931;SDS011;22847;42.654;23.370;2024-01-15T06:42:06;61.75;;;29.92;;
36931;SDS011;22847;42.654;23.370;2024-01-15T06:44:31;59.38;;;28.85;;
36931;SDS011;22847;42.654;23.370;2024-01-15T06:46:57;67.75;;;30.67;;
36931;SDS011;22847;42.654;23.370;2024-01-15T06:49:27;84.45;;;33.80;;
36931;SDS011;22847;42.654;23.370;2024-01-15T06:51:56;84.90;;;34.60;;
36931;SDS011;22847;42.654;23.370;2024-01-15T06:54:21;78.80;;;35.22;;
36931;SDS011;22847;42.654;23.370;2024-01-15T06:56:47;92.05;;;38.35;;
36931;SDS011;22847;42.654;23.370;2024-01-15T06:59:12;76.15;;;35.05;;
36931;SDS011;22847;42.654;23.370;2024-01-15T07:01:38;76.88;;;34.15;;
36931;SDS011;22847;42.654;23.370;2024-01-15T07:04:03;73.80;;;33.80;;
36931;SDS011;22847;42.654;23.370;2024-01-15T07:06:28;87.90;;;36.67;;
36931;SDS011;22847;42.654;23.370;2024-01-15T07:08:55;80.00;;;36.05;;
36931;SDS011;22847;42.654;23.370;2024-01-15T07:11:21;83.72;;;35.05;;
36931;SDS011;22847;42.654;23.370;2024-01-15T07:13:46;77.57;;;36.47;;
36931;SDS011;22847;42.654;23.370;2024-01-15T07:16:12;81.28;;;35.83;;
36931;SDS011;22847;42.654;23.370;2024-01-15T07:18:37;93.85;;;37.50;;
36931;SDS011;22847;42.654;23.370;2024-01-15T07:21:03;88.22;;;38.47;;
36931;SDS011;22847;42.654;23.370;2024-01-15T07:23:30;85.25;;;37.38;;
36931;SDS011;22847;42.654;23.370;2024-01-15T07:25:56;82.28;;;37.42;;
36931;SDS011;22847;42.654;23.370;2024-01-15T07:28:21;81.43;;;36.33;;
36931;SDS011;22847;42.654;23.370;2024-01-15T07:30:47;94.55;;;37.70;;
36931;SDS011;22847;42.654;23.370;2024-01-15T07:33:12;82.78;;;37.00;;
36931;SDS011;22847;42.654;23.370;2024-01-15T07:35:38;78.10;;;35.15;;
36931;SDS011;22847;42.654;23.370;2024-01-15T07:38:03;81.93;;;36.13;;
36931;SDS011;22847;42.654;23.370;2024-01-15T07:40:29;83.68;;;36.83;;
36931;SDS011;22847;42.654;23.370;2024-01-15T07:42:54;78.15;;;35.13;;
36931;SDS011;22847;42.654;23.370;2024-01-15T07:45:20;86.82;;;37.35;;
36931;SDS011;22847;42.654;23.370;2024-01-15T07:47:46;75.20;;;34.17;;
36931;SDS011;22847;42.654;23.370;2024-01-15T07:50:11;115.85;;;50.17;;
36931;SDS011;22847;42.654;23.370;2024-01-15T07:52:36;85.28;;;36.45;;
36931;SDS011;22847;42.654;23.370;2024-01-15T07:55:02;78.15;;;33.97;;
36931;SDS011;22847;42.654;23.370;2024-01-15T07:57:30;69.75;;;31.73;;
36931;SDS011;22847;42.654;23.370;2024-01-15T07:59:55;66.80;;;28.58;;
36931;SDS011;22847;42.654;23.370;2024-01-15T08:02:21;69.72;;;30.00;;
36931;SDS011;22847;42.654;23.370;2024-01-15T08:04:47;65.53;;;29.85;;
36931;SDS011;22847;42.654;23.370;2024-01-15T08:07:12;73.85;;;30.80;;
36931;SDS011;22847;42.654;23.370;2024-01-15T08:09:38;58.03;;;24.48;;
36931;SDS011;22847;42.654;23.370;2024-01-15T08:12:03;55.63;;;22.40;;
36931;SDS011;22847;42.654;23.370;2024-01-15T08:14:31;48.10;;;22.33;;
36931;SDS011;22847;42.654;23.370;2024-01-15T08:16:56;47.22;;;20.02;;
36931;SDS011;22847;42.654;23.370;2024-01-15T08:19:22;47.10;;;19.52;;
36931;SDS011;22847;42.654;23.370;2024-01-15T08:21:48;42.65;;;19.38;;
36931;SDS011;22847;42.654;23.370;2024-01-15T08:24:14;41.20;;;17.80;;
36931;SDS011;22847;42.654;23.370;2024-01-15T08:26:40;39.45;;;17.05;;
36931;SDS011;22847;42.654;23.370;2024-01-15T08:29:05;42.00;;;17.95;;
36931;SDS011;22847;42.654;23.370;2024-01-15T08:31:30;33.10;;;16.38;;
36931;SDS011;22847;42.654;23.370;2024-01-15T08:33:56;49.13;;;21.38;;
36931;SDS011;22847;42.654;23.370;2024-01-15T08:36:22;56.10;;;25.42;;
36931;SDS011;22847;42.654;23.370;2024-01-15T08:38:49;49.65;;;23.42;;
36931;SDS011;22847;42.654;23.370;2024-01-15T08:41:14;49.08;;;22.50;;
36931;SDS011;22847;42.654;23.370;2024-01-15T08:43:40;54.97;;;24.73;;
36931;SDS011;22847;42.654;23.370;2024-01-15T08:46:05;67.00;;;25.05;;
36931;SDS011;22847;42.654;23.370;2024-01-15T08:48:31;59.70;;;25.17;;
36931;SDS011;22847;42.654;23.370;2024-01-15T08:50:57;54.33;;;26.10;;
36931;SDS011;22847;42.654;23.370;2024-01-15T08:53:22;54.92;;;25.55;;
36931;SDS011;22847;42.654;23.370;2024-01-15T08:55:48;49.95;;;23.98;;
36931;SDS011;22847;42.654;23.370;2024-01-15T08:58:14;48.20;;;23.95;;
36931;SDS011;22847;42.654;23.370;2024-01-15T09:00:39;57.97;;;25.60;;
36931;SDS011;22847;42.654;23.370;2024-01-15T09:03:05;55.65;;;26.27;;
36931;SDS011;22847;42.654;23.370;2024-01-15T09:05:31;49.75;;;25.23;;
36931;SDS011;22847;42.654;23.370;2024-01-15T09:07:57;56.92;;;27.08;;
36931;SDS011;22847;42.654;23.370;2024-01-15T09:10:22;53.13;;;27.08;;
36931;SDS011;22847;42.654;23.370;2024-01-15T09:12:49;52.47;;;25.40;;
36931;SDS011;22847;42.654;23.370;2024-01-15T09:15:14;58.35;;;27.95;;
36931;SDS011;22847;42.654;23.370;2024-01-15T09:17:40;60.75;;;27.02;;
36931;SDS011;22847;42.654;23.370;2024-01-15T09:20:06;53.88;;;26.90;;
36931;SDS011;22847;42.654;23.370;2024-01-15T09:22:32;70.72;;;29.10;;
36931;SDS011;22847;42.654;23.370;2024-01-15T09:24:58;71.55;;;31.75;;
36931;SDS011;22847;42.654;23.370;2024-01-15T09:27:23;63.42;;;30.73;;
36931;SDS011;22847;42.654;23.370;2024-01-15T09:29:51;96.18;;;46.38;;
36931;SDS011;22847;42.654;23.370;2024-01-15T09:32:17;99.72;;;49.45;;
36931;SDS011;22847;42.654;23.370;2024-01-15T09:34:43;109.88;;;52.13;;
36931;SDS011;22847;42.654;23.370;2024-01-15T09:37:09;101.35;;;48.75;;
36931;SDS011;22847;42.654;23.370;2024-01-15T09:39:34;102.43;;;46.95;;
36931;SDS011;22847;42.654;23.370;2024-01-15T09:42:00;91.82;;;44.10;;
36931;SDS011;22847;42.654;23.370;2024-01-15T09:44:26;93.10;;;43.33;;
36931;SDS011;22847;42.654;23.370;2024-01-15T09:46:52;95.53;;;42.33;;
36931;SDS011;22847;42.654;23.370;2024-01-15T09:49:18;84.80;;;40.75;;
36931;SDS011;22847;42.654;23.370;2024-01-15T09:51:45;82.63;;;39.15;;
36931;SDS011;22847;42.654;23.370;2024-01-15T09:54:12;76.55;;;35.53;;
36931;SDS011;22847;42.654;23.370;2024-01-15T09:56:38;74.82;;;35.83;;
36931;SDS011;22847;42.654;23.370;2024-01-15T09:59:04;64.25;;;30.88;;
36931;SDS011;22847;42.654;23.370;2024-01-15T10:01:32;62.90;;;29.92;;
36931;SDS011;22847;42.654;23.370;2024-01-15T10:03:58;64.65;;;27.50;;
36931;SDS011;22847;42.654;23.370;2024-01-15T10:06:27;51.67;;;23.70;;
36931;SDS011;22847;42.654;23.370;2024-01-15T10:08:53;50.08;;;23.52;;
36931;SDS011;22847;42.654;23.370;2024-01-15T10:11:19;51.13;;;23.08;;
36931;SDS011;22847;42.654;23.370;2024-01-15T10:13:45;53.13;;;22.77;;
36931;SDS011;22847;42.654;23.370;2024-01-15T10:16:11;47.10;;;22.50;;
36931;SDS011;22847;42.654;23.370;2024-01-15T10:18:37;50.20;;;23.92;;
36931;SDS011;22847;42.654;23.370;2024-01-15T10:21:04;62.80;;;28.98;;
36931;SDS011;22847;42.654;23.370;2024-01-15T10:23:32;62.33;;;26.67;;
36931;SDS011;22847;42.654;23.370;2024-01-15T10:25:58;62.50;;;26.20;;
36931;SDS011;22847;42.654;23.370;2024-01-15T10:28:26;53.30;;;23.00;;
36931;SDS011;22847;42.654;23.370;2024-01-15T10:30:53;53.72;;;23.33;;
36931;SDS011;22847;42.654;23.370;2024-01-15T10:33:22;53.33;;;23.35;;
36931;SDS011;22847;42.654;23.370;2024-01-15T10:35:55;53.20;;;23.90;;
36931;SDS011;22847;42.654;23.370;2024-01-15T10:38:24;62.83;;;24.20;;
36931;SDS011;22847;42.654;23.370;2024-01-15T10:40:54;51.08;;;23.98;;
36931;SDS011;22847;42.654;23.370;2024-01-15T10:43:20;50.08;;;23.77;;
36931;SDS011;22847;42.654;23.370;2024-01-15T10:45:47;60.55;;;26.98;;
36931;SDS011;22847;42.654;23.370;2024-01-15T10:48:15;54.08;;;24.23;;
36931;SDS011;22847;42.654;23.370;2024-01-15T10:50:42;50.35;;;23.13;;
36931;SDS011;22847;42.654;23.370;2024-01-15T10:53:09;55.70;;;24.55;;
36931;SDS011;22847;42.654;23.370;2024-01-15T10:55:37;51.13;;;23.48;;
36931;SDS011;22847;42.654;23.370;2024-01-15T10:58:04;49.90;;;23.40;;
36931;SDS011;22847;42.654;23.370;2024-01-15T11:00:32;50.58;;;22.27;;
36931;SDS011;22847;42.654;23.370;2024-01-15T11:03:00;52.72;;;21.83;;
36931;SDS011;22847;42.654;23.370;2024-01-15T11:05:27;50.47;;;22.52;;
36931;SDS011;22847;42.654;23.370;2024-01-15T11:07:55;50.30;;;24.30;;
36931;SDS011;22847;42.654;23.370;2024-01-15T11:15:59;61.60;;;27.92;;
36931;SDS011;22847;42.654;23.370;2024-01-15T11:18:27;55.03;;;25.77;;
36931;SDS011;22847;42.654;23.370;2024-01-15T11:34:21;81.15;;;34.20;;
36931;SDS011;22847;42.654;23.370;2024-01-15T11:37:06;63.85;;;32.17;;
36931;SDS011;22847;42.654;23.370;2024-01-15T11:42:02;69.40;;;31.70;;
36931;SDS011;22847;42.654;23.370;2024-01-15T11:44:31;64.28;;;30.27;;
36931;SDS011;22847;42.654;23.370;2024-01-15T11:47:00;65.88;;;28.77;;
36931;SDS011;22847;42.654;23.370;2024-01-15T11:52:21;73.57;;;29.15;;
36931;SDS011;22847;42.654;23.370;2024-01-15T12:00:05;56.85;;;28.80;;
36931;SDS011;22847;42.654;23.370;2024-01-15T12:02:32;60.00;;;27.80;;
36931;SDS011;22847;42.654;23.370;2024-01-15T12:04:58;61.92;;;29.10;;
36931;SDS011;22847;42.654;23.370;2024-01-15T12:07:23;66.50;;;27.85;;
36931;SDS011;22847;42.654;23.370;2024-01-15T12:09:49;67.15;;;27.33;;
36931;SDS011;22847;42.654;23.370;2024-01-15T12:12:17;58.15;;;28.42;;
36931;SDS011;22847;42.654;23.370;2024-01-15T12:14:50;61.70;;;27.95;;
36931;SDS011;22847;42.654;23.370;2024-01-15T12:17:15;68.03;;;28.77;;
36931;SDS011;22847;42.654;23.370;2024-01-15T12:19:41;62.83;;;29.08;;
36931;SDS011;22847;42.654;23.370;2024-01-15T12:22:08;69.30;;;27.77;;
36931;SDS011;22847;42.654;23.370;2024-01-15T12:24:34;64.32;;;27.80;;
36931;SDS011;22847;42.654;23.370;2024-01-15T12:27:00;58.80;;;26.60;;
36931;SDS011;22847;42.654;23.370;2024-01-15T12:29:26;52.75;;;27.20;;
36931;SDS011;22847;42.654;23.370;2024-01-15T12:31:52;57.70;;;24.77;;
36931;SDS011;22847;42.654;23.370;2024-01-15T12:34:18;49.25;;;23.90;;
36931;SDS011;22847;42.654;23.370;2024-01-15T12:36:46;51.60;;;23.02;;
36931;SDS011;22847;42.654;23.370;2024-01-15T12:39:12;48.20;;;23.23;;
36931;SDS011;22847;42.654;23.370;2024-01-15T12:41:38;53.88;;;24.30;;
36931;SDS011;22847;42.654;23.370;2024-01-15T12:44:04;54.38;;;23.92;;
36931;SDS011;22847;42.654;23.370;2024-01-15T12:46:30;57.72;;;24.90;;
36931;SDS011;22847;42.654;23.370;2024-01-15T12:48:56;55.00;;;24.52;;
36931;SDS011;22847;42.654;23.370;2024-01-15T12:51:26;49.20;;;23.85;;
36931;SDS011;22847;42.654;23.370;2024-01-15T12:53:51;53.22;;;23.67;;
36931;SDS011;22847;42.654;23.370;2024-01-15T12:56:18;46.88;;;23.67;;
36931;SDS011;22847;42.654;23.370;2024-01-15T12:58:43;59.33;;;24.73;;
36931;SDS011;22847;42.654;23.370;2024-01-15T13:01:08;53.33;;;24.98;;
36931;SDS011;22847;42.654;23.370;2024-01-15T13:03:34;57.90;;;24.58;;
36931;SDS011;22847;42.654;23.370;2024-01-15T13:06:00;56.67;;;24.77;;
36931;SDS011;22847;42.654;23.370;2024-01-15T13:08:25;53.53;;;23.08;;
36931;SDS011;22847;42.654;23.370;2024-01-15T13:10:53;39.63;;;22.48;;
36931;SDS011;22847;42.654;23.370;2024-01-15T13:13:21;58.78;;;23.50;;
36931;SDS011;22847;42.654;23.370;2024-01-15T13:15:47;59.30;;;23.65;;
36931;SDS011;22847;42.654;23.370;2024-01-15T13:18:12;46.80;;;22.48;;
36931;SDS011;22847;42.654;23.370;2024-01-15T13:20:38;51.15;;;22.67;;
36931;SDS011;22847;42.654;23.370;2024-01-15T13:23:03;48.25;;;23.35;;
36931;SDS011;22847;42.654;23.370;2024-01-15T13:25:29;50.30;;;23.65;;
36931;SDS011;22847;42.654;23.370;2024-01-15T13:27:54;66.10;;;24.80;;
36931;SDS011;22847;42.654;23.370;2024-01-15T13:30:20;55.35;;;23.42;;
36931;SDS011;22847;42.654;23.370;2024-01-15T13:32:46;61.25;;;25.83;;
36931;SDS011;22847;42.654;23.370;2024-01-15T13:35:12;61.72;;;23.23;;
36931;SDS011;22847;42.654;23.370;2024-01-15T13:37:38;66.53;;;24.33;;
36931;SDS011;22847;42.654;23.370;2024-01-15T13:40:06;60.30;;;23.67;;
36931;SDS011;22847;42.654;23.370;2024-01-15T13:42:34;64.55;;;24.75;;
36931;SDS011;22847;42.654;23.370;2024-01-15T13:45:00;62.55;;;24.33;;
36931;SDS011;22847;42.654;23.370;2024-01-15T13:47:25;50.03;;;23.10;;
36931;SDS011;22847;42.654;23.370;2024-01-15T13:49:51;54.08;;;24.60;;
36931;SDS011;22847;42.654;23.370;2024-01-15T13:52:16;58.25;;;23.35;;
36931;SDS011;22847;42.654;23.370;2024-01-15T13:54:42;54.60;;;23.02;;
36931;SDS011;22847;42.654;23.370;2024-01-15T13:57:08;51.78;;;23.10;;
36931;SDS011;22847;42.654;23.370;2024-01-15T13:59:33;44.47;;;22.50;;
36931;SDS011;22847;42.654;23.370;2024-01-15T14:01:59;50.55;;;24.33;;
36931;SDS011;22847;42.654;23.370;2024-01-15T14:04:24;53.58;;;25.02;;
36931;SDS011;22847;42.654;23.370;2024-01-15T14:06:50;59.50;;;24.75;;
36931;SDS011;22847;42.654;23.370;2024-01-15T14:09:15;50.35;;;24.13;;
36931;SDS011;22847;42.654;23.370;2024-01-15T14:11:41;62.33;;;24.55;;
36931;SDS011;22847;42.654;23.370;2024-01-15T14:14:06;55.05;;;24.85;;
36931;SDS011;22847;42.654;23.370;2024-01-15T14:16:34;52.15;;;24.20;;
36931;SDS011;22847;42.654;23.370;2024-01-15T14:18:59;53.25;;;24.75;;
36931;SDS011;22847;42.654;23.370;2024-01-15T14:21:27;56.25;;;24.65;;
36931;SDS011;22847;42.654;23.370;2024-01-15T14:23:52;59.22;;;25.25;;
36931;SDS011;22847;42.654;23.370;2024-01-15T14:26:18;57.90;;;24.35;;
36931;SDS011;22847;42.654;23.370;2024-01-15T14:28:43;52.67;;;24.00;;
36931;SDS011;22847;42.654;23.370;2024-01-15T14:31:11;67.00;;;25.80;;
36931;SDS011;22847;42.654;23.370;2024-01-15T14:33:36;59.22;;;24.33;;
36931;SDS011;22847;42.654;23.370;2024-01-15T14:36:02;50.72;;;24.60;;
36931;SDS011;22847;42.654;23.370;2024-01-15T14:38:27;56.42;;;24.85;;
36931;SDS011;22847;42.654;23.370;2024-01-15T14:40:53;52.20;;;25.33;;